sensor_id;sensor_type;location;lat;lon;timestamp;pressure;altitude;pressure_sealevel;temperature;humidity
50103;BME280;35993;52.604;10.078;2022-07-19T00:01:42;101543.59;;;19.17;66.60
50103;BME280;35993;52.604;10.078;2022-07-19T00:04:07;101541.06;;;19.15;66.71
50103;BME280;35993;52.604;10.078;2022-07-19T00:06:33;101535.50;;;19.10;66.93
50103;BME280;35993;52.604;10.078;2022-07-19T00:08:59;101542.13;;;19.09;66.86
50103;BME280;35993;52.604;10.078;2022-07-19T00:11:25;101543.94;;;19.04;67.43
50103;BME280;35993;52.604;10.078;2022-07-19T00:13:51;101540.31;;;18.98;67.83
50103;BME280;35993;52.604;10.078;2022-07-19T00:16:17;101534.72;;;18.93;67.94
50103;BME280;35993;52.604;10.078;2022-07-19T00:18:43;101537.59;;;18.86;68.06
50103;BME280;35993;52.604;10.078;2022-07-19T00:21:08;101537.88;;;18.84;68.02
50103;BME280;35993;52.604;10.078;2022-07-19T00:23:34;101540.28;;;18.81;68.06
50103;BME280;35993;52.604;10.078;2022-07-19T00:26:01;101534.78;;;18.81;68.12
50103;BME280;35993;52.604;10.078;2022-07-19T00:28:27;101533.38;;;18.78;67.99
50103;BME280;35993;52.604;10.078;2022-07-19T00:30:53;101537.72;;;18.74;68.38
50103;BME280;35993;52.604;10.078;2022-07-19T00:33:18;101537.38;;;18.71;68.61
50103;BME280;35993;52.604;10.078;2022-07-19T00:35:44;101538.41;;;18.64;68.83
50103;BME280;35993;52.604;10.078;2022-07-19T00:38:13;101545.47;;;18.60;69.20
50103;BME280;35993;52.604;10.078;2022-07-19T00:40:40;101542.16;;;18.58;68.83
50103;BME280;35993;52.604;10.078;2022-07-19T00:43:07;101542.38;;;18.57;69.20
50103;BME280;35993;52.604;10.078;2022-07-19T00:45:33;101543.41;;;18.50;69.34
50103;BME280;35993;52.604;10.078;2022-07-19T00:47:59;101547.41;;;18.43;69.32
50103;BME280;35993;52.604;10.078;2022-07-19T00:50:25;101548.75;;;18.40;69.55
50103;BME280;35993;52.604;10.078;2022-07-19T00:52:54;101550.06;;;18.38;69.54
50103;BME280;35993;52.604;10.078;2022-07-19T00:55:22;101551.16;;;18.37;69.75
50103;BME280;35993;52.604;10.078;2022-07-19T00:57:49;101552.41;;;18.29;69.94
50103;BME280;35993;52.604;10.078;2022-07-19T01:00:16;101550.63;;;18.23;70.39
50103;BME280;35993;52.604;10.078;2022-07-19T01:02:43;101545.31;;;18.16;70.68
50103;BME280;35993;52.604;10.078;2022-07-19T01:05:10;101551.88;;;18.15;70.67
50103;BME280;35993;52.604;10.078;2022-07-19T01:07:39;101550.22;;;18.14;70.95
50103;BME280;35993;52.604;10.078;2022-07-19T01:10:06;101557.28;;;18.10;71.12
50103;BME280;35993;52.604;10.078;2022-07-19T01:12:32;101549.19;;;18.03;71.62
50103;BME280;35993;52.604;10.078;2022-07-19T01:14:59;101548.50;;;17.96;71.93
50103;BME280;35993;52.604;10.078;2022-07-19T01:17:25;101550.06;;;17.92;72.06
50103;BME280;35993;52.604;10.078;2022-07-19T01:19:51;101548.63;;;17.89;72.01
50103;BME280;35993;52.604;10.078;2022-07-19T01:22:17;101552.72;;;17.87;72.25
50103;BME280;35993;52.604;10.078;2022-07-19T01:24:43;101549.88;;;17.81;72.36
50103;BME280;35993;52.604;10.078;2022-07-19T01:27:09;101550.84;;;17.75;72.81
50103;BME280;35993;52.604;10.078;2022-07-19T01:29:35;101552.41;;;17.71;72.85
50103;BME280;35993;52.604;10.078;2022-07-19T01:32:02;101555.88;;;17.66;72.99
50103;BME280;35993;52.604;10.078;2022-07-19T01:34:28;101553.59;;;17.63;73.22
50103;BME280;35993;52.604;10.078;2022-07-19T01:36:54;101546.94;;;17.59;73.23
50103;BME280;35993;52.604;10.078;2022-07-19T01:39:20;101554.63;;;17.45;74.27
50103;BME280;35993;52.604;10.078;2022-07-19T01:41:45;101556.19;;;17.41;74.68
50103;BME280;35993;52.604;10.078;2022-07-19T01:44:11;101560.84;;;17.41;74.87
50103;BME280;35993;52.604;10.078;2022-07-19T01:46:46;101552.72;;;17.34;75.23
50103;BME280;35993;52.604;10.078;2022-07-19T01:49:11;101558.47;;;17.32;75.51
50103;BME280;35993;52.604;10.078;2022-07-19T01:51:37;101557.78;;;17.25;76.14
50103;BME280;35993;52.604;10.078;2022-07-19T01:54:02;101555.50;;;17.22;75.98
50103;BME280;35993;52.604;10.078;2022-07-19T01:56:28;101556.69;;;17.26;75.60
50103;BME280;35993;52.604;10.078;2022-07-19T01:58:54;101561.59;;;17.24;75.57
50103;BME280;35993;52.604;10.078;2022-07-19T02:01:19;101552.19;;;17.20;76.14
50103;BME280;35993;52.604;10.078;2022-07-19T02:03:45;101557.88;;;17.18;76.38
50103;BME280;35993;52.604;10.078;2022-07-19T02:06:10;101556.47;;;17.16;76.40
50103;BME280;35993;52.604;10.078;2022-07-19T02:08:36;101546.69;;;17.08;76.66
50103;BME280;35993;52.604;10.078;2022-07-19T02:11:03;101545.50;;;17.04;76.89
50103;BME280;35993;52.604;10.078;2022-07-19T02:13:48;101548.50;;;17.02;77.19
50103;BME280;35993;52.604;10.078;2022-07-19T02:16:14;101536.56;;;16.97;77.37
50103;BME280;35993;52.604;10.078;2022-07-19T02:18:40;101542.28;;;16.95;77.46
50103;BME280;35993;52.604;10.078;2022-07-19T02:21:05;101542.06;;;16.97;77.37
50103;BME280;35993;52.604;10.078;2022-07-19T02:23:31;101538.97;;;16.93;77.40
50103;BME280;35993;52.604;10.078;2022-07-19T02:25:56;101545.78;;;16.91;77.79
50103;BME280;35993;52.604;10.078;2022-07-19T02:28:22;101547.28;;;16.86;78.03
50103;BME280;35993;52.604;10.078;2022-07-19T02:30:48;101542.88;;;16.85;78.31
50103;BME280;35993;52.604;10.078;2022-07-19T02:33:13;101541.91;;;16.80;78.35
50103;BME280;35993;52.604;10.078;2022-07-19T02:35:39;101538.44;;;16.73;78.89
50103;BME280;35993;52.604;10.078;2022-07-19T02:38:04;101535.38;;;16.69;79.08
50103;BME280;35993;52.604;10.078;2022-07-19T02:40:30;101542.75;;;16.68;79.20
50103;BME280;35993;52.604;10.078;2022-07-19T02:42:56;101541.91;;;16.68;79.33
50103;BME280;35993;52.604;10.078;2022-07-19T02:45:21;101541.69;;;16.69;78.98
50103;BME280;35993;52.604;10.078;2022-07-19T02:47:47;101540.25;;;16.67;79.47
50103;BME280;35993;52.604;10.078;2022-07-19T02:50:13;101539.63;;;16.65;79.87
50103;BME280;35993;52.604;10.078;2022-07-19T02:52:38;101542.25;;;16.60;80.07
50103;BME280;35993;52.604;10.078;2022-07-19T02:55:05;101543.34;;;16.59;80.43
50103;BME280;35993;52.604;10.078;2022-07-19T02:57:31;101553.34;;;16.53;80.94
50103;BME280;35993;52.604;10.078;2022-07-19T02:59:56;101543.94;;;16.49;81.14
50103;BME280;35993;52.604;10.078;2022-07-19T03:02:22;101543.31;;;16.47;81.49
50103;BME280;35993;52.604;10.078;2022-07-19T03:04:48;101546.78;;;16.42;81.39
50103;BME280;35993;52.604;10.078;2022-07-19T03:07:14;101544.03;;;16.42;82.12
50103;BME280;35993;52.604;10.078;2022-07-19T03:10:06;101550.72;;;16.34;87.66
50103;BME280;35993;52.604;10.078;2022-07-19T03:12:32;101548.53;;;16.25;90.47
50103;BME280;35993;52.604;10.078;2022-07-19T03:14:57;101555.78;;;16.19;89.25
50103;BME280;35993;52.604;10.078;2022-07-19T03:17:23;101554.81;;;16.13;89.02
50103;BME280;35993;52.604;10.078;2022-07-19T03:19:49;101554.19;;;16.11;88.86
50103;BME280;35993;52.604;10.078;2022-07-19T03:22:15;101558.47;;;16.07;88.89
50103;BME280;35993;52.604;10.078;2022-07-19T03:24:40;101563.81;;;16.02;88.94
50103;BME280;35993;52.604;10.078;2022-07-19T03:27:06;101554.16;;;15.99;87.66
50103;BME280;35993;52.604;10.078;2022-07-19T03:29:32;101554.16;;;15.99;88.19
50103;BME280;35993;52.604;10.078;2022-07-19T03:31:57;101557.00;;;15.93;87.96
50103;BME280;35993;52.604;10.078;2022-07-19T03:34:24;101558.78;;;15.87;87.98
50103;BME280;35993;52.604;10.078;2022-07-19T03:36:50;101563.03;;;15.83;89.13
50103;BME280;35993;52.604;10.078;2022-07-19T03:39:15;101565.16;;;15.81;88.79
50103;BME280;35993;52.604;10.078;2022-07-19T03:41:41;101567.69;;;15.82;89.06
50103;BME280;35993;52.604;10.078;2022-07-19T03:44:06;101570.00;;;15.79;88.44
50103;BME280;35993;52.604;10.078;2022-07-19T03:46:32;101559.28;;;15.77;88.69
50103;BME280;35993;52.604;10.078;2022-07-19T03:48:58;101556.78;;;15.76;90.63
50103;BME280;35993;52.604;10.078;2022-07-19T03:51:23;101557.63;;;15.76;90.86
50103;BME280;35993;52.604;10.078;2022-07-19T03:53:50;101562.63;;;15.79;90.51
50103;BME280;35993;52.604;10.078;2022-07-19T03:56:16;101566.00;;;15.81;90.71
50103;BME280;35993;52.604;10.078;2022-07-19T03:58:43;101570.31;;;15.89;90.33
50103;BME280;35993;52.604;10.078;2022-07-19T04:01:10;101565.34;;;15.98;89.26
50103;BME280;35993;52.604;10.078;2022-07-19T04:03:39;101565.34;;;15.98;89.13
50103;BME280;35993;52.604;10.078;2022-07-19T04:06:10;101570.22;;;15.96;89.70
50103;BME280;35993;52.604;10.078;2022-07-19T04:08:36;101566.41;;;15.97;89.04
50103;BME280;35993;52.604;10.078;2022-07-19T04:11:03;101575.75;;;16.08;89.58
50103;BME280;35993;52.604;10.078;2022-07-19T04:13:28;101583.50;;;16.11;89.27
50103;BME280;35993;52.604;10.078;2022-07-19T04:15:54;101577.19;;;16.10;90.15
50103;BME280;35993;52.604;10.078;2022-07-19T04:18:20;101577.53;;;16.14;90.03
50103;BME280;35993;52.604;10.078;2022-07-19T04:20:45;101571.84;;;16.15;90.33
50103;BME280;35993;52.604;10.078;2022-07-19T04:23:11;101582.72;;;16.22;89.85
50103;BME280;35993;52.604;10.078;2022-07-19T04:25:36;101577.59;;;16.26;90.00
50103;BME280;35993;52.604;10.078;2022-07-19T04:28:03;101580.44;;;16.19;91.31
50103;BME280;35993;52.604;10.078;2022-07-19T04:30:29;101580.34;;;16.26;90.40
50103;BME280;35993;52.604;10.078;2022-07-19T04:32:55;101579.16;;;16.33;90.30
50103;BME280;35993;52.604;10.078;2022-07-19T04:35:20;101586.59;;;16.45;89.72
50103;BME280;35993;52.604;10.078;2022-07-19T04:37:46;101577.06;;;16.59;89.02
50103;BME280;35993;52.604;10.078;2022-07-19T04:40:12;101585.28;;;16.71;89.43
50103;BME280;35993;52.604;10.078;2022-07-19T04:42:38;101577.31;;;16.81;88.95
50103;BME280;35993;52.604;10.078;2022-07-19T04:45:04;101583.28;;;16.90;88.61
50103;BME280;35993;52.604;10.078;2022-07-19T04:47:30;101585.47;;;17.00;87.43
50103;BME280;35993;52.604;10.078;2022-07-19T04:49:56;101582.84;;;17.05;87.45
50103;BME280;35993;52.604;10.078;2022-07-19T04:52:21;101586.78;;;17.09;87.62
50103;BME280;35993;52.604;10.078;2022-07-19T04:54:47;101586.06;;;17.14;87.02
50103;BME280;35993;52.604;10.078;2022-07-19T04:57:13;101586.88;;;17.26;86.20
50103;BME280;35993;52.604;10.078;2022-07-19T04:59:39;101583.53;;;17.36;86.29
50103;BME280;35993;52.604;10.078;2022-07-19T05:02:05;101584.91;;;17.50;84.80
50103;BME280;35993;52.604;10.078;2022-07-19T05:04:31;101586.09;;;17.66;84.55
50103;BME280;35993;52.604;10.078;2022-07-19T05:06:57;101583.13;;;17.85;82.40
50103;BME280;35993;52.604;10.078;2022-07-19T05:09:28;101584.78;;;17.98;82.38
50103;BME280;35993;52.604;10.078;2022-07-19T05:11:54;101583.78;;;18.16;80.72
50103;BME280;35993;52.604;10.078;2022-07-19T05:14:21;101589.91;;;18.35;79.92
50103;BME280;35993;52.604;10.078;2022-07-19T05:16:47;101582.38;;;18.47;80.08
50103;BME280;35993;52.604;10.078;2022-07-19T05:19:15;101587.16;;;18.52;78.60
50103;BME280;35993;52.604;10.078;2022-07-19T05:21:41;101589.56;;;18.65;77.38
50103;BME280;35993;52.604;10.078;2022-07-19T05:24:07;101589.22;;;18.79;76.27
50103;BME280;35993;52.604;10.078;2022-07-19T05:26:33;101593.84;;;18.90;75.41
50103;BME280;35993;52.604;10.078;2022-07-19T05:28:59;101590.84;;;18.92;73.97
50103;BME280;35993;52.604;10.078;2022-07-19T05:31:25;101599.75;;;18.99;73.62
50103;BME280;35993;52.604;10.078;2022-07-19T05:33:51;101590.13;;;19.19;72.79
50103;BME280;35993;52.604;10.078;2022-07-19T05:36:17;101591.59;;;19.26;71.85
50103;BME280;35993;52.604;10.078;2022-07-19T05:38:44;101603.56;;;19.37;71.38
50103;BME280;35993;52.604;10.078;2022-07-19T05:41:10;101598.72;;;19.44;71.06
50103;BME280;35993;52.604;10.078;2022-07-19T05:43:37;101602.53;;;19.60;70.89
50103;BME280;35993;52.604;10.078;2022-07-19T05:46:04;101602.88;;;19.69;70.22
50103;BME280;35993;52.604;10.078;2022-07-19T05:48:31;101596.19;;;19.82;70.87
50103;BME280;35993;52.604;10.078;2022-07-19T05:50:57;101599.41;;;20.01;70.13
50103;BME280;35993;52.604;10.078;2022-07-19T05:53:24;101601.47;;;20.11;69.03
50103;BME280;35993;52.604;10.078;2022-07-19T05:55:49;101607.41;;;20.25;68.62
50103;BME280;35993;52.604;10.078;2022-07-19T05:58:15;101614.63;;;20.31;68.21
50103;BME280;35993;52.604;10.078;2022-07-19T06:00:44;101615.00;;;20.40;68.00
50103;BME280;35993;52.604;10.078;2022-07-19T06:03:30;101617.56;;;20.52;67.13
50103;BME280;35993;52.604;10.078;2022-07-19T06:05:55;101609.97;;;20.64;66.23
50103;BME280;35993;52.604;10.078;2022-07-19T06:08:21;101609.84;;;20.81;66.15
50103;BME280;35993;52.604;10.078;2022-07-19T06:10:47;101609.34;;;20.89;65.88
50103;BME280;35993;52.604;10.078;2022-07-19T06:13:13;101612.72;;;20.97;64.99
50103;BME280;35993;52.604;10.078;2022-07-19T06:15:39;101610.03;;;21.07;64.67
50103;BME280;35993;52.604;10.078;2022-07-19T06:18:05;101611.72;;;21.13;64.67
50103;BME280;35993;52.604;10.078;2022-07-19T06:20:30;101609.84;;;21.24;64.44
50103;BME280;35993;52.604;10.078;2022-07-19T06:22:56;101609.63;;;21.31;63.58
50103;BME280;35993;52.604;10.078;2022-07-19T06:25:22;101608.28;;;21.38;62.48
50103;BME280;35993;52.604;10.078;2022-07-19T06:27:47;101608.88;;;21.51;62.38
50103;BME280;35993;52.604;10.078;2022-07-19T06:30:13;101607.84;;;21.62;62.05
50103;BME280;35993;52.604;10.078;2022-07-19T06:32:39;101607.91;;;21.72;61.60
50103;BME280;35993;52.604;10.078;2022-07-19T06:35:05;101605.97;;;21.73;60.61
50103;BME280;35993;52.604;10.078;2022-07-19T06:37:31;101611.00;;;21.86;60.75
50103;BME280;35993;52.604;10.078;2022-07-19T06:39:57;101610.75;;;22.03;60.99
50103;BME280;35993;52.604;10.078;2022-07-19T06:42:22;101615.47;;;22.13;60.28
50103;BME280;35993;52.604;10.078;2022-07-19T06:44:49;101611.63;;;22.19;59.25
50103;BME280;35993;52.604;10.078;2022-07-19T06:47:15;101612.22;;;22.32;59.47
50103;BME280;35993;52.604;10.078;2022-07-19T06:49:41;101607.25;;;22.44;59.42
50103;BME280;35993;52.604;10.078;2022-07-19T06:52:07;101616.94;;;22.52;58.79
50103;BME280;35993;52.604;10.078;2022-07-19T06:54:33;101616.94;;;22.52;58.26
50103;BME280;35993;52.604;10.078;2022-07-19T06:56:59;101615.56;;;22.65;58.35
50103;BME280;35993;52.604;10.078;2022-07-19T06:59:25;101616.41;;;22.75;58.16
50103;BME280;35993;52.604;10.078;2022-07-19T07:02:14;101616.38;;;22.96;58.36
50103;BME280;35993;52.604;10.078;2022-07-19T07:04:58;101613.31;;;23.03;57.61
50103;BME280;35993;52.604;10.078;2022-07-19T07:07:23;101608.34;;;23.15;57.36
50103;BME280;35993;52.604;10.078;2022-07-19T07:09:50;101613.84;;;23.26;57.34
50103;BME280;35993;52.604;10.078;2022-07-19T07:12:16;101607.47;;;23.35;56.27
50103;BME280;35993;52.604;10.078;2022-07-19T07:14:42;101607.69;;;23.54;55.83
50103;BME280;35993;52.604;10.078;2022-07-19T07:17:28;101608.44;;;23.70;54.91
50103;BME280;35993;52.604;10.078;2022-07-19T07:19:54;101608.69;;;23.74;54.47
50103;BME280;35993;52.604;10.078;2022-07-19T07:22:19;101600.66;;;23.78;53.92
50103;BME280;35993;52.604;10.078;2022-07-19T07:24:45;101611.41;;;23.84;53.44
50103;BME280;35993;52.604;10.078;2022-07-19T07:27:11;101609.19;;;23.97;53.56
50103;BME280;35993;52.604;10.078;2022-07-19T07:29:36;101602.41;;;24.13;53.01
50103;BME280;35993;52.604;10.078;2022-07-19T07:32:02;101610.13;;;24.21;52.32
50103;BME280;35993;52.604;10.078;2022-07-19T07:34:28;101607.84;;;24.29;51.83
50103;BME280;35993;52.604;10.078;2022-07-19T07:36:54;101606.66;;;24.40;50.67
50103;BME280;35993;52.604;10.078;2022-07-19T07:39:20;101607.22;;;24.37;50.85
50103;BME280;35993;52.604;10.078;2022-07-19T07:41:45;101606.00;;;24.53;51.05
50103;BME280;35993;52.604;10.078;2022-07-19T07:44:11;101598.16;;;24.66;50.80
50103;BME280;35993;52.604;10.078;2022-07-19T07:46:37;101609.66;;;24.83;51.05
50103;BME280;35993;52.604;10.078;2022-07-19T07:49:03;101611.19;;;24.95;50.48
50103;BME280;35993;52.604;10.078;2022-07-19T07:51:32;101604.47;;;25.01;50.16
50103;BME280;35993;52.604;10.078;2022-07-19T07:53:59;101609.63;;;25.13;49.43
50103;BME280;35993;52.604;10.078;2022-07-19T07:56:25;101599.38;;;25.13;48.72
50103;BME280;35993;52.604;10.078;2022-07-19T07:58:52;101599.94;;;25.10;48.80
50103;BME280;35993;52.604;10.078;2022-07-19T08:01:17;101599.25;;;25.24;48.53
50103;BME280;35993;52.604;10.078;2022-07-19T08:03:43;101608.56;;;25.38;48.52
50103;BME280;35993;52.604;10.078;2022-07-19T08:06:09;101597.03;;;25.50;47.57
50103;BME280;35993;52.604;10.078;2022-07-19T08:08:37;101591.22;;;25.71;47.49
50103;BME280;35993;52.604;10.078;2022-07-19T08:11:03;101586.16;;;25.92;46.66
50103;BME280;35993;52.604;10.078;2022-07-19T08:13:29;101596.34;;;26.01;46.70
50103;BME280;35993;52.604;10.078;2022-07-19T08:15:55;101588.69;;;26.12;46.91
50103;BME280;35993;52.604;10.078;2022-07-19T08:18:20;101595.25;;;26.22;46.22
50103;BME280;35993;52.604;10.078;2022-07-19T08:20:46;101588.31;;;26.19;45.66
50103;BME280;35993;52.604;10.078;2022-07-19T08:23:12;101591.06;;;26.38;44.83
50103;BME280;35993;52.604;10.078;2022-07-19T08:25:38;101582.66;;;26.57;44.26
50103;BME280;35993;52.604;10.078;2022-07-19T08:28:03;101584.69;;;26.71;43.87
50103;BME280;35993;52.604;10.078;2022-07-19T08:30:29;101584.63;;;26.76;42.95
50103;BME280;35993;52.604;10.078;2022-07-19T08:32:55;101585.16;;;26.92;42.43
50103;BME280;35993;52.604;10.078;2022-07-19T08:35:21;101596.63;;;27.04;42.22
50103;BME280;35993;52.604;10.078;2022-07-19T08:37:47;101592.31;;;27.26;41.69
50103;BME280;35993;52.604;10.078;2022-07-19T08:40:12;101589.00;;;27.24;41.68
50103;BME280;35993;52.604;10.078;2022-07-19T08:42:39;101588.81;;;27.34;41.79
50103;BME280;35993;52.604;10.078;2022-07-19T08:45:07;101596.66;;;27.32;42.38
50103;BME280;35993;52.604;10.078;2022-07-19T08:47:34;101595.19;;;27.35;41.98
50103;BME280;35993;52.604;10.078;2022-07-19T08:50:01;101596.16;;;27.44;41.70
50103;BME280;35993;52.604;10.078;2022-07-19T08:52:27;101594.31;;;27.39;41.09
50103;BME280;35993;52.604;10.078;2022-07-19T08:54:55;101583.16;;;27.39;41.04
50103;BME280;35993;52.604;10.078;2022-07-19T08:57:21;101582.22;;;27.44;40.73
50103;BME280;35993;52.604;10.078;2022-07-19T09:00:07;101592.22;;;27.59;40.93
50103;BME280;35993;52.604;10.078;2022-07-19T09:02:33;101576.13;;;27.92;41.26
50103;BME280;35993;52.604;10.078;2022-07-19T09:05:00;101590.59;;;28.08;40.35
50103;BME280;35993;52.604;10.078;2022-07-19T09:07:26;101580.19;;;28.23;40.20
50103;BME280;35993;52.604;10.078;2022-07-19T09:09:52;101583.28;;;28.44;39.61
50103;BME280;35993;52.604;10.078;2022-07-19T09:12:18;101579.56;;;28.49;39.33
50103;BME280;35993;52.604;10.078;2022-07-19T09:14:53;101578.91;;;28.52;38.50
50103;BME280;35993;52.604;10.078;2022-07-19T09:17:18;101579.28;;;28.59;39.19
50103;BME280;35993;52.604;10.078;2022-07-19T09:19:47;101576.50;;;28.59;39.07
50103;BME280;35993;52.604;10.078;2022-07-19T09:22:14;101579.78;;;28.84;37.79
50103;BME280;35993;52.604;10.078;2022-07-19T09:24:48;101578.50;;;28.90;37.56
50103;BME280;35993;52.604;10.078;2022-07-19T09:27:20;101572.81;;;29.04;36.19
50103;BME280;35993;52.604;10.078;2022-07-19T09:29:54;101568.91;;;29.14;35.02
50103;BME280;35993;52.604;10.078;2022-07-19T09:32:22;101578.44;;;29.13;36.04
50103;BME280;35993;52.604;10.078;2022-07-19T09:37:17;101566.59;;;29.16;35.56
50103;BME280;35993;52.604;10.078;2022-07-19T09:39:47;101565.69;;;29.29;36.28
50103;BME280;35993;52.604;10.078;2022-07-19T09:42:14;101561.63;;;29.44;36.02
50103;BME280;35993;52.604;10.078;2022-07-19T09:44:41;101562.81;;;29.69;34.96
50103;BME280;35993;52.604;10.078;2022-07-19T09:47:07;101557.72;;;29.63;34.20
50103;BME280;35993;52.604;10.078;2022-07-19T09:49:32;101560.53;;;29.71;33.77
50103;BME280;35993;52.604;10.078;2022-07-19T09:51:58;101558.91;;;29.88;32.20
50103;BME280;35993;52.604;10.078;2022-07-19T09:54:27;101553.31;;;29.88;30.93
50103;BME280;35993;52.604;10.078;2022-07-19T09:56:54;101547.72;;;29.97;31.54
50103;BME280;35993;52.604;10.078;2022-07-19T09:59:22;101554.47;;;30.13;31.41
50103;BME280;35993;52.604;10.078;2022-07-19T10:01:49;101553.97;;;30.29;31.64
50103;BME280;35993;52.604;10.078;2022-07-19T10:04:19;101549.31;;;30.42;31.10
50103;BME280;35993;52.604;10.078;2022-07-19T10:06:46;101546.69;;;30.54;30.52
50103;BME280;35993;52.604;10.078;2022-07-19T10:09:15;101546.34;;;30.38;30.39
50103;BME280;35993;52.604;10.078;2022-07-19T10:11:42;101549.34;;;30.24;30.62
50103;BME280;35993;52.604;10.078;2022-07-19T10:14:09;101542.25;;;30.35;30.28
50103;BME280;35993;52.604;10.078;2022-07-19T10:16:51;101537.84;;;30.17;28.60
50103;BME280;35993;52.604;10.078;2022-07-19T10:19:42;101545.56;;;30.02;29.38
50103;BME280;35993;52.604;10.078;2022-07-19T10:22:11;101531.56;;;30.11;30.44
50103;BME280;35993;52.604;10.078;2022-07-19T10:27:10;101534.38;;;30.02;30.12
50103;BME280;35993;52.604;10.078;2022-07-19T10:29:36;101523.34;;;30.06;30.11
50103;BME280;35993;52.604;10.078;2022-07-19T10:32:07;101520.53;;;30.23;29.01
50103;BME280;35993;52.604;10.078;2022-07-19T10:34:33;101519.34;;;30.51;29.29
50103;BME280;35993;52.604;10.078;2022-07-19T10:36:59;101524.56;;;30.61;29.67
50103;BME280;35993;52.604;10.078;2022-07-19T10:39:36;101529.19;;;31.04;28.57
50103;BME280;35993;52.604;10.078;2022-07-19T10:52:34;101510.09;;;31.07;29.02
50103;BME280;35993;52.604;10.078;2022-07-19T10:57:48;101508.38;;;31.14;28.45
50103;BME280;35993;52.604;10.078;2022-07-19T11:00:18;101498.84;;;31.36;28.36
50103;BME280;35993;52.604;10.078;2022-07-19T11:02:46;101498.78;;;31.45;27.88
50103;BME280;35993;52.604;10.078;2022-07-19T11:05:27;101506.44;;;31.36;27.75
50103;BME280;35993;52.604;10.078;2022-07-19T11:07:55;101494.63;;;31.21;27.90
50103;BME280;35993;52.604;10.078;2022-07-19T11:10:26;101488.31;;;30.95;27.97
50103;BME280;35993;52.604;10.078;2022-07-19T11:12:53;101488.50;;;30.89;27.94
50103;BME280;35993;52.604;10.078;2022-07-19T11:15:20;101489.97;;;30.96;27.69
50103;BME280;35993;52.604;10.078;2022-07-19T11:20:17;101485.81;;;31.02;27.51
50103;BME280;35993;52.604;10.078;2022-07-19T11:22:47;101481.25;;;31.48;27.14
50103;BME280;35993;52.604;10.078;2022-07-19T11:25:16;101490.97;;;31.93;25.77
50103;BME280;35993;52.604;10.078;2022-07-19T11:27:44;101479.72;;;31.93;24.99
50103;BME280;35993;52.604;10.078;2022-07-19T11:30:11;101472.41;;;32.01;25.64
50103;BME280;35993;52.604;10.078;2022-07-19T11:32:38;101471.75;;;32.16;25.61
50103;BME280;35993;52.604;10.078;2022-07-19T11:35:07;101475.25;;;32.13;25.42
50103;BME280;35993;52.604;10.078;2022-07-19T11:37:35;101474.75;;;31.99;26.37
50103;BME280;35993;52.604;10.078;2022-07-19T11:40:03;101473.00;;;32.07;26.06
50103;BME280;35993;52.604;10.078;2022-07-19T11:42:42;101474.25;;;32.18;25.02
50103;BME280;35993;52.604;10.078;2022-07-19T11:45:40;101464.88;;;32.26;24.20
50103;BME280;35993;52.604;10.078;2022-07-19T11:48:07;101465.81;;;32.18;25.44
50103;BME280;35993;52.604;10.078;2022-07-19T11:50:35;101456.84;;;32.49;24.72
50103;BME280;35993;52.604;10.078;2022-07-19T11:53:01;101460.53;;;32.75;24.31
50103;BME280;35993;52.604;10.078;2022-07-19T11:55:29;101459.31;;;32.63;23.50
50103;BME280;35993;52.604;10.078;2022-07-19T11:57:59;101447.84;;;32.68;23.43
50103;BME280;35993;52.604;10.078;2022-07-19T12:00:25;101451.47;;;32.57;24.31
50103;BME280;35993;52.604;10.078;2022-07-19T12:05:22;101450.28;;;32.45;24.50
50103;BME280;35993;52.604;10.078;2022-07-19T12:07:49;101440.25;;;32.69;24.15
50103;BME280;35993;52.604;10.078;2022-07-19T12:10:34;101438.97;;;32.79;23.41
50103;BME280;35993;52.604;10.078;2022-07-19T12:13:02;101430.78;;;32.86;23.30
50103;BME280;35993;52.604;10.078;2022-07-19T12:18:07;101441.03;;;32.57;23.73
50103;BME280;35993;52.604;10.078;2022-07-19T12:20:33;101433.09;;;32.59;23.83
50103;BME280;35993;52.604;10.078;2022-07-19T12:23:18;101439.59;;;32.26;23.75
50103;BME280;35993;52.604;10.078;2022-07-19T12:25:49;101431.34;;;31.75;24.22
50103;BME280;35993;52.604;10.078;2022-07-19T12:28:14;101435.81;;;31.55;24.34
50103;BME280;35993;52.604;10.078;2022-07-19T12:30:40;101433.69;;;31.52;24.55
50103;BME280;35993;52.604;10.078;2022-07-19T12:33:12;101429.03;;;31.56;24.09
50103;BME280;35993;52.604;10.078;2022-07-19T12:35:43;101428.00;;;31.82;24.29
50103;BME280;35993;52.604;10.078;2022-07-19T12:38:09;101421.88;;;32.01;23.82
50103;BME280;35993;52.604;10.078;2022-07-19T12:40:37;101425.44;;;32.23;23.44
50103;BME280;35993;52.604;10.078;2022-07-19T12:43:04;101417.88;;;32.73;23.55
50103;BME280;35993;52.604;10.078;2022-07-19T12:45:38;101426.19;;;32.81;23.22
50103;BME280;35993;52.604;10.078;2022-07-19T12:48:05;101423.97;;;32.99;23.36
50103;BME280;35993;52.604;10.078;2022-07-19T12:50:34;101416.91;;;33.06;23.54
50103;BME280;35993;52.604;10.078;2022-07-19T12:53:03;101424.97;;;33.20;22.47
50103;BME280;35993;52.604;10.078;2022-07-19T12:55:31;101425.06;;;33.23;22.70
50103;BME280;35993;52.604;10.078;2022-07-19T12:57:58;101422.22;;;32.95;22.24
50103;BME280;35993;52.604;10.078;2022-07-19T13:00:25;101417.75;;;32.81;22.53
50103;BME280;35993;52.604;10.078;2022-07-19T13:02:52;101410.84;;;32.91;23.22
50103;BME280;35993;52.604;10.078;2022-07-19T13:05:20;101411.13;;;33.27;22.71
50103;BME280;35993;52.604;10.078;2022-07-19T13:07:46;101403.19;;;33.29;23.16